createdAt,value
2018-12-26T00:00:03.267Z,29.72
2018-12-26T00:01:03.577Z,25.75
2018-12-26T00:02:03.154Z,28.82
2018-12-26T00:03:03.412Z,24.46
2018-12-26T00:04:03.129Z,25.26
2018-12-26T00:05:03.133Z,25.69
2018-12-26T00:06:03.018Z,26.23
2018-12-26T00:07:03.344Z,27.06
2018-12-26T00:08:03.741Z,27.73
2018-12-26T00:09:03.116Z,26.02
2018-12-26T00:10:02.913Z,26.02
2018-12-26T00:11:02.925Z,26.02
2018-12-26T00:12:03.201Z,28.66
2018-12-26T00:13:03.032Z,28.66
2018-12-26T00:14:02.968Z,30.24
2018-12-26T00:15:03.359Z,24.25
2018-12-26T00:16:03.220Z,25.41
2018-12-26T00:17:03.715Z,30.39
2018-12-26T00:18:03.137Z,31.7
2018-12-26T00:19:02.806Z,26.64
2018-12-26T00:20:03.736Z,27.68
2018-12-26T00:21:02.858Z,31.49
2018-12-26T00:22:03.236Z,29.28
2018-12-26T00:23:03.605Z,30.83
2018-12-26T00:24:03.090Z,27.1
2018-12-26T00:25:03.216Z,31
2018-12-26T00:26:03.027Z,29.73
2018-12-26T00:27:06.051Z,31.59
2018-12-26T00:28:03.620Z,29.34
2018-12-26T00:29:03.390Z,25.84
2018-12-26T00:30:03.266Z,27.12
2018-12-26T00:31:03.487Z,27.72
2018-12-26T00:32:03.580Z,30.44
2018-12-26T00:33:02.888Z,26.07
2018-12-26T00:34:03.713Z,28.56
2018-12-26T00:35:02.882Z,28.22
2018-12-26T00:36:03.802Z,27.59
2018-12-26T00:37:04.008Z,25.56
2018-12-26T00:38:03.665Z,26.82
2018-12-26T00:39:03.071Z,25.46
2018-12-26T00:40:03.406Z,24.72
2018-12-26T00:41:03.470Z,27.93
2018-12-26T00:42:02.825Z,29.18
2018-12-26T00:43:02.849Z,30.38
2018-12-26T00:44:03.032Z,27.96
2018-12-26T00:45:02.769Z,32.31
2018-12-26T00:46:03.469Z,29.14
2018-12-26T00:47:03.163Z,27.25
2018-12-26T00:48:03.666Z,28.59
2018-12-26T00:49:03.818Z,27.67
2018-12-26T00:50:03.813Z,29.93
2018-12-26T00:51:03.389Z,29.93
2018-12-26T00:52:03.220Z,25.89
2018-12-26T00:53:03.086Z,31.22
2018-12-26T00:54:03.493Z,27.75
2018-12-26T00:55:03.164Z,27.29
2018-12-26T00:56:10.356Z,28.32
2018-12-26T00:57:02.907Z,29.29
2018-12-26T00:58:03.168Z,28.13
2018-12-26T00:59:02.730Z,26.68
2018-12-26T01:00:03.479Z,24.35
2018-12-26T01:01:03.271Z,30.48
2018-12-26T01:02:02.942Z,25.44
2018-12-26T01:03:02.907Z,27.91
2018-12-26T01:04:03.376Z,26.69
2018-12-26T01:05:03.264Z,27.16
2018-12-26T01:06:03.576Z,27.61
2018-12-26T01:07:03.752Z,29.41
2018-12-26T01:08:03.265Z,25.54
2018-12-26T01:09:02.859Z,30.91
2018-12-26T01:10:03.088Z,25.31
2018-12-26T01:11:03.606Z,27.7
2018-12-26T01:12:03.601Z,25.31
2018-12-26T01:13:02.911Z,27.19
2018-12-26T01:14:03.598Z,31.52
2018-12-26T01:15:03.020Z,27.2
2018-12-26T01:16:03.730Z,26.73
2018-12-26T01:17:03.391Z,26.98
2018-12-26T01:18:03.093Z,26.86
2018-12-26T01:19:02.750Z,28.72
2018-12-26T01:20:03.976Z,24.97
2018-12-26T01:21:03.592Z,27.81
2018-12-26T01:22:02.832Z,28.09
2018-12-26T01:23:03.978Z,29.59
2018-12-26T01:24:03.189Z,29.59
2018-12-26T01:25:03.371Z,28.61
2018-12-26T01:26:02.955Z,29.86
2018-12-26T01:27:04.390Z,30.65
2018-12-26T01:28:02.749Z,30.65
2018-12-26T01:29:03.489Z,28.71
2018-12-26T01:30:03.038Z,29.36
2018-12-26T01:31:03.113Z,28.25
2018-12-26T01:32:03.069Z,29.22
2018-12-26T01:33:04.132Z,28.28
2018-12-26T01:34:03.071Z,31.74
2018-12-26T01:35:02.830Z,29.48
2018-12-26T01:36:02.713Z,33.36
2018-12-26T01:37:03.088Z,33.36
2018-12-26T01:38:03.187Z,30.78
2018-12-26T01:39:03.596Z,33.15
2018-12-26T01:40:03.108Z,33.15
2018-12-26T01:41:04.629Z,28.57
2018-12-26T01:42:02.627Z,31.52
2018-12-26T01:43:03.560Z,31.52
2018-12-26T01:44:03.513Z,27.58
2018-12-26T01:45:03.551Z,31.82
2018-12-26T01:46:02.991Z,29.45
2018-12-26T01:47:03.775Z,28.88
2018-12-26T01:48:03.349Z,29.81
2018-12-26T01:49:03.358Z,34.13
2018-12-26T01:50:02.856Z,28.57
2018-12-26T01:51:03.335Z,30.81
2018-12-26T01:52:02.964Z,34.53
2018-12-26T01:53:03.166Z,32.63
2018-12-26T01:54:03.758Z,33.5
2018-12-26T01:55:03.214Z,30.52
2018-12-26T01:56:02.909Z,30.41
2018-12-26T01:57:03.739Z,32.97
2018-12-26T01:58:02.933Z,32.55
2018-12-26T01:59:03.262Z,34.61
2018-12-26T02:00:03.714Z,30.88
2018-12-26T02:01:02.622Z,30.88
2018-12-26T02:02:02.883Z,31.56
2018-12-26T02:03:02.666Z,31.36
2018-12-26T02:04:03.561Z,30.85
2018-12-26T02:05:03.309Z,32.04
2018-12-26T02:06:03.170Z,33.29
2018-12-26T02:07:03.506Z,30.47
2018-12-26T02:08:03.414Z,37.65
2018-12-26T02:09:02.914Z,34.42
2018-12-26T02:10:03.541Z,32.63
2018-12-26T02:11:03.535Z,35.85
2018-12-26T02:12:03.298Z,37.05
2018-12-26T02:13:03.540Z,37.65
2018-12-26T02:14:03.434Z,35.25
2018-12-26T02:15:03.040Z,34.97
2018-12-26T02:16:03.469Z,33.52
2018-12-26T02:17:03.459Z,33.61
2018-12-26T02:18:03.973Z,38.15
2018-12-26T02:19:03.687Z,36.71
2018-12-26T02:20:03.097Z,36.36
2018-12-26T02:21:02.789Z,35.08
2018-12-26T02:22:03.338Z,37.86
2018-12-26T02:23:03.411Z,34.24
2018-12-26T02:24:03.639Z,37.19
2018-12-26T02:25:03.157Z,35.26
2018-12-26T02:26:03.371Z,30.69
2018-12-26T02:27:02.759Z,30.69
2018-12-26T02:28:03.563Z,32.61
2018-12-26T02:29:03.137Z,35.01
2018-12-26T02:30:02.712Z,35.01
2018-12-26T02:31:02.783Z,38.51
2018-12-26T02:32:03.113Z,34.54
2018-12-26T02:33:02.895Z,31.48
2018-12-26T02:34:03.103Z,39.62
2018-12-26T02:35:03.418Z,38.68
2018-12-26T02:36:03.278Z,33.54
2018-12-26T02:37:03.505Z,32.67
2018-12-26T02:38:03.008Z,36.65
2018-12-26T02:39:03.620Z,32.8
2018-12-26T02:40:02.942Z,42.25
2018-12-26T02:41:02.950Z,34.79
2018-12-26T02:42:02.836Z,40.13
2018-12-26T02:43:03.105Z,36.75
2018-12-26T02:44:03.367Z,39.98
2018-12-26T02:45:02.973Z,37.88
2018-12-26T02:46:03.078Z,41.13
2018-12-26T02:47:03.314Z,41.34
2018-12-26T02:48:02.834Z,43.18
2018-12-26T02:49:10.155Z,39.92
2018-12-26T02:50:03.220Z,38.25
2018-12-26T02:51:03.258Z,41.54
2018-12-26T02:52:03.249Z,41.18
2018-12-26T02:53:03.057Z,39.74
2018-12-26T02:54:03.119Z,42.59
2018-12-26T02:55:03.112Z,44.49
2018-12-26T02:56:03.428Z,41.65
2018-12-26T02:57:02.647Z,45.07
2018-12-26T02:58:02.853Z,43.14
2018-12-26T02:59:02.794Z,43.14
2018-12-26T03:00:03.352Z,38.65
2018-12-26T03:01:02.805Z,41.05
2018-12-26T03:02:02.887Z,47.79
2018-12-26T03:03:03.749Z,34.34
2018-12-26T03:04:02.877Z,43.02
2018-12-26T03:05:03.725Z,43.05
2018-12-26T03:06:03.440Z,38.59
2018-12-26T03:07:03.151Z,42.57
2018-12-26T03:08:03.261Z,42.94
2018-12-26T03:09:03.804Z,42.75
2018-12-26T03:10:03.048Z,41.45
2018-12-26T03:11:03.343Z,42.32
2018-12-26T03:12:03.589Z,43.16
2018-12-26T03:13:03.049Z,44.31
2018-12-26T03:14:03.527Z,43.31
2018-12-26T03:15:03.097Z,43.31
2018-12-26T03:16:03.211Z,43.31
2018-12-26T03:17:03.326Z,35.82
2018-12-26T03:18:02.992Z,38.63
2018-12-26T03:19:03.127Z,41.65
2018-12-26T03:20:03.837Z,43.46
2018-12-26T03:21:03.689Z,44.3
2018-12-26T03:22:03.281Z,44.3
2018-12-26T03:23:03.108Z,41.24
2018-12-26T03:24:03.333Z,43.04
2018-12-26T03:25:02.977Z,41.99
2018-12-26T03:26:03.683Z,43.75
2018-12-26T03:27:02.943Z,42.78
2018-12-26T03:28:02.864Z,48.45
2018-12-26T03:29:03.395Z,42.14
2018-12-26T03:30:03.122Z,41.18
2018-12-26T03:31:02.856Z,46.78
2018-12-26T03:32:03.222Z,39.43
2018-12-26T03:33:02.930Z,43.62
2018-12-26T03:34:03.372Z,41.55
2018-12-26T03:35:03.336Z,41.31
2018-12-26T03:36:02.756Z,45.84
2018-12-26T03:37:03.727Z,45.61
2018-12-26T03:38:03.641Z,43.66
2018-12-26T03:39:03.235Z,42.21
2018-12-26T03:40:03.580Z,42.66
2018-12-26T03:41:04.013Z,42.15
2018-12-26T03:42:03.352Z,45.87
2018-12-26T03:43:03.162Z,41.6
2018-12-26T03:44:02.838Z,41.06
2018-12-26T03:45:03.028Z,41.39
2018-12-26T03:46:03.284Z,44.53
2018-12-26T03:47:03.458Z,46.05
2018-12-26T03:48:02.878Z,46.44
2018-12-26T03:49:03.537Z,46.05
2018-12-26T03:50:03.518Z,51.82
2018-12-26T03:51:07.919Z,44.11
2018-12-26T03:52:03.455Z,42.04
2018-12-26T03:53:03.600Z,38.69
2018-12-26T03:54:03.730Z,46.22
2018-12-26T03:55:03.241Z,52.54
2018-12-26T03:56:02.705Z,43.28
2018-12-26T03:57:06.132Z,45.86
2018-12-26T03:58:03.029Z,44.56
2018-12-26T03:59:03.579Z,50.99
2018-12-26T04:00:02.833Z,45.78
2018-12-26T04:01:03.433Z,43.23
2018-12-26T04:02:02.696Z,44.99
2018-12-26T04:03:03.829Z,50.34
2018-12-26T04:04:03.339Z,50.34
2018-12-26T04:05:03.738Z,47.89
2018-12-26T04:06:02.862Z,44.23
2018-12-26T04:07:02.988Z,44.23
2018-12-26T04:08:03.291Z,46.75
2018-12-26T04:09:02.894Z,47.56
2018-12-26T04:10:03.413Z,47.34
2018-12-26T04:11:03.279Z,40.86
2018-12-26T04:12:03.143Z,44.79
2018-12-26T04:13:03.029Z,42.97
2018-12-26T04:14:03.629Z,45.98
2018-12-26T04:15:03.148Z,44.36
2018-12-26T04:16:03.253Z,49.29
2018-12-26T04:17:03.081Z,45.67
2018-12-26T04:18:02.928Z,40.44
2018-12-26T04:19:02.887Z,46.26
2018-12-26T04:20:03.689Z,38.71
2018-12-26T04:21:03.262Z,48.01
2018-12-26T04:22:03.164Z,41.1
2018-12-26T04:23:03.314Z,43.59
2018-12-26T04:24:03.196Z,48.78
2018-12-26T04:25:03.714Z,42
2018-12-26T04:26:03.433Z,48.77
2018-12-26T04:27:03.055Z,47.92
2018-12-26T04:28:03.751Z,51.32
2018-12-26T04:29:02.739Z,44.06
2018-12-26T04:30:03.598Z,45.18
2018-12-26T04:31:02.887Z,42.42
2018-12-26T04:32:03.938Z,49.36
2018-12-26T04:33:03.417Z,52.06
2018-12-26T04:34:03.199Z,47.05
2018-12-26T04:35:03.376Z,43.71
2018-12-26T04:36:02.703Z,41.76
2018-12-26T04:37:03.306Z,48.25
2018-12-26T04:38:03.461Z,45.81
2018-12-26T04:39:03.041Z,47.11
2018-12-26T04:40:03.854Z,50.25
2018-12-26T04:41:03.421Z,43.08
2018-12-26T04:42:02.911Z,42.9
2018-12-26T04:43:02.955Z,48.59
2018-12-26T04:44:03.253Z,43.69
2018-12-26T04:45:03.222Z,45.07
2018-12-26T04:46:02.968Z,43.61
2018-12-26T04:47:03.621Z,43.51
2018-12-26T04:48:03.399Z,42.59
2018-12-26T04:49:02.855Z,40.83
2018-12-26T04:50:03.525Z,46.22
2018-12-26T04:51:02.929Z,51.32
2018-12-26T04:52:03.667Z,51.32
2018-12-26T04:53:03.317Z,45.16
2018-12-26T04:54:03.244Z,44.66
2018-12-26T04:55:03.223Z,44.66
2018-12-26T04:56:03.462Z,44.33
2018-12-26T04:57:03.344Z,44.75
2018-12-26T04:58:03.393Z,49.68
2018-12-26T04:59:03.199Z,45.63
2018-12-26T05:00:03.834Z,44.51
2018-12-26T05:01:03.561Z,44.48
2018-12-26T05:02:02.784Z,42.82
2018-12-26T05:03:03.200Z,47.49
2018-12-26T05:04:03.274Z,46.38
2018-12-26T05:05:03.021Z,46.03
2018-12-26T05:06:03.048Z,42.1
2018-12-26T05:07:03.183Z,42.73
2018-12-26T05:08:03.015Z,46.03
2018-12-26T05:09:03.038Z,42.26
2018-12-26T05:10:03.781Z,44.64
2018-12-26T05:11:02.815Z,42.43
2018-12-26T05:12:03.214Z,49.62
2018-12-26T05:13:02.864Z,40.87
2018-12-26T05:14:02.884Z,42.94
2018-12-26T05:15:03.441Z,48.43
2018-12-26T05:16:03.128Z,48.11
2018-12-26T05:17:02.838Z,42.51
2018-12-26T05:18:03.554Z,45.43
2018-12-26T05:19:03.213Z,43.74
2018-12-26T05:20:03.280Z,41.22
2018-12-26T05:21:02.760Z,39.9
2018-12-26T05:22:03.245Z,41.23
2018-12-26T05:23:03.134Z,43.48
2018-12-26T05:24:02.791Z,37.53
2018-12-26T05:25:03.621Z,40.74
2018-12-26T05:26:03.509Z,42.42
2018-12-26T05:27:03.623Z,40.36
2018-12-26T05:28:02.812Z,37.15
2018-12-26T05:29:03.556Z,45.45
2018-12-26T05:30:03.242Z,40.52
2018-12-26T05:31:03.420Z,44.54
2018-12-26T05:32:03.080Z,43.15
2018-12-26T05:33:03.110Z,47.11
2018-12-26T05:34:03.323Z,44.28
2018-12-26T05:35:03.392Z,38.71
2018-12-26T05:36:03.069Z,49.34
2018-12-26T05:37:02.813Z,43.33
2018-12-26T05:38:03.300Z,43.81
2018-12-26T05:39:03.099Z,41.45
2018-12-26T05:40:03.501Z,41.45
2018-12-26T05:41:03.312Z,44.58
2018-12-26T05:42:03.069Z,40.14
2018-12-26T05:43:03.294Z,43.53
2018-12-26T05:44:03.194Z,43.02
2018-12-26T05:45:04.463Z,43.02
2018-12-26T05:46:03.206Z,44.75
2018-12-26T05:47:03.818Z,44.75
2018-12-26T05:48:03.498Z,45.97
2018-12-26T05:49:03.253Z,44.31
2018-12-26T05:50:03.508Z,46.42
2018-12-26T05:51:03.905Z,44.66
2018-12-26T05:52:02.873Z,43.26
2018-12-26T05:53:02.967Z,44.02
2018-12-26T05:54:03.073Z,42.2
2018-12-26T05:55:03.138Z,46.04
2018-12-26T05:56:03.251Z,40.49
2018-12-26T05:57:03.570Z,40.8
2018-12-26T05:58:03.551Z,47
2018-12-26T05:59:03.323Z,46.37
2018-12-26T06:00:03.545Z,43.71
2018-12-26T06:01:03.748Z,43.75
2018-12-26T06:02:03.356Z,43.51
2018-12-26T06:03:03.155Z,40.51
2018-12-26T06:04:03.580Z,44.91
2018-12-26T06:05:03.490Z,46.4
2018-12-26T06:06:02.978Z,40.04
2018-12-26T06:07:03.017Z,42.69
2018-12-26T06:08:02.926Z,39.71
2018-12-26T06:09:03.539Z,45.18
2018-12-26T06:10:03.255Z,44.09
2018-12-26T06:11:02.999Z,43.93
2018-12-26T06:12:03.055Z,43.63
2018-12-26T06:13:03.159Z,41.04
2018-12-26T06:14:03.001Z,42.84
2018-12-26T06:15:03.537Z,43.41
2018-12-26T06:16:02.951Z,40.56
2018-12-26T06:17:03.511Z,44.36
2018-12-26T06:18:03.316Z,40.76
2018-12-26T06:19:04.224Z,43.11
2018-12-26T06:20:03.353Z,38.53
2018-12-26T06:21:03.437Z,41.9
2018-12-26T06:22:05.664Z,44.67
2018-12-26T06:23:02.789Z,41.61
2018-12-26T06:24:03.420Z,41.86
2018-12-26T06:25:02.994Z,41.15
2018-12-26T06:26:02.926Z,41.73
2018-12-26T06:27:03.693Z,39.08
2018-12-26T06:28:03.555Z,40.82
2018-12-26T06:29:03.005Z,45.58
2018-12-26T06:30:03.257Z,45.58
2018-12-26T06:31:02.793Z,38.63
2018-12-26T06:32:03.142Z,38.63
2018-12-26T06:33:03.395Z,42.19
2018-12-26T06:34:02.991Z,47.76
2018-12-26T06:35:03.674Z,42.09
2018-12-26T06:36:03.544Z,38.36
2018-12-26T06:37:02.771Z,46.29
2018-12-26T06:38:02.777Z,43.59
2018-12-26T06:39:03.319Z,45.32
2018-12-26T06:40:03.075Z,41.88
2018-12-26T06:41:03.291Z,45.58
2018-12-26T06:42:03.368Z,43.65
2018-12-26T06:43:02.918Z,44.76
2018-12-26T06:44:03.434Z,46.71
2018-12-26T06:45:03.504Z,45.44
2018-12-26T06:46:03.056Z,48.95
2018-12-26T06:47:03.203Z,45.25
2018-12-26T06:48:03.731Z,49.36
2018-12-26T06:49:03.260Z,43.08
2018-12-26T06:50:02.846Z,47.28
2018-12-26T06:51:03.426Z,43.02
2018-12-26T06:52:03.261Z,43.1
2018-12-26T06:53:03.339Z,43.59
2018-12-26T06:54:02.839Z,43.28
2018-12-26T06:55:02.866Z,47.05
2018-12-26T06:56:03.252Z,42.54
2018-12-26T06:57:04.666Z,43.2
2018-12-26T06:58:03.013Z,44.82
2018-12-26T06:59:03.718Z,43.55
2018-12-26T07:00:02.992Z,50.33
2018-12-26T07:01:03.213Z,41.99
2018-12-26T07:02:03.236Z,45.59
2018-12-26T07:03:02.737Z,40.36
2018-12-26T07:04:03.222Z,45.51
2018-12-26T07:05:02.996Z,43.58
2018-12-26T07:06:03.467Z,38.02
2018-12-26T07:07:03.091Z,40.36
2018-12-26T07:08:03.520Z,40.46
2018-12-26T07:09:03.552Z,42.85
2018-12-26T07:10:03.242Z,44.46
2018-12-26T07:11:02.624Z,43.92
2018-12-26T07:12:03.340Z,43.54
2018-12-26T07:13:02.881Z,41.93
2018-12-26T07:14:02.784Z,39.71
2018-12-26T07:15:03.121Z,36.53
2018-12-26T07:16:02.823Z,39.87
2018-12-26T07:17:03.844Z,43.51
2018-12-26T07:18:03.083Z,42.83
2018-12-26T07:19:02.992Z,42.83
2018-12-26T07:20:03.482Z,42.39
2018-12-26T07:21:03.100Z,44.75
2018-12-26T07:22:02.769Z,46.33
2018-12-26T07:23:03.005Z,44.61
2018-12-26T07:24:02.856Z,40.78
2018-12-26T07:25:03.333Z,45.59
2018-12-26T07:26:03.087Z,45.77
2018-12-26T07:27:02.884Z,42.95
2018-12-26T07:28:08.882Z,44.18
2018-12-26T07:29:02.973Z,34.83
2018-12-26T07:30:03.313Z,38.91
2018-12-26T07:31:03.339Z,46.42
2018-12-26T07:32:03.412Z,41.91
2018-12-26T07:33:02.839Z,44.78
2018-12-26T07:34:03.426Z,43.32
2018-12-26T07:35:03.119Z,41.12
2018-12-26T07:36:03.570Z,40.87
2018-12-26T07:37:03.043Z,38.89
2018-12-26T07:38:02.867Z,44.85
2018-12-26T07:39:03.035Z,49.45
2018-12-26T07:40:03.761Z,43.18
2018-12-26T07:41:03.210Z,42.79
2018-12-26T07:42:02.814Z,51.39
2018-12-26T07:43:02.953Z,50.63
2018-12-26T07:44:02.864Z,42.96
2018-12-26T07:45:02.806Z,48.51
2018-12-26T07:46:03.302Z,44.03
2018-12-26T07:47:03.711Z,45.2
2018-12-26T07:48:02.994Z,44.48
2018-12-26T07:49:03.554Z,46.62
2018-12-26T07:50:03.656Z,46.79
2018-12-26T07:51:03.661Z,46.18
2018-12-26T07:52:04.187Z,45.16
2018-12-26T07:53:02.714Z,47.66
2018-12-26T07:54:03.361Z,44.6
2018-12-26T07:55:03.759Z,44.83
2018-12-26T07:56:02.976Z,42.72
2018-12-26T07:57:03.449Z,41.88
2018-12-26T07:58:03.566Z,44.89
2018-12-26T07:59:02.838Z,40.22
2018-12-26T08:00:03.056Z,38.52
2018-12-26T08:01:03.375Z,45.36
2018-12-26T08:02:03.130Z,35.92
2018-12-26T08:03:03.476Z,37.29
2018-12-26T08:04:03.015Z,40.21
2018-12-26T08:05:02.991Z,41.98
2018-12-26T08:06:03.589Z,41.58
2018-12-26T08:07:03.167Z,40.94
2018-12-26T08:08:02.649Z,45.74
2018-12-26T08:09:03.702Z,45.74
2018-12-26T08:10:02.893Z,44.72
2018-12-26T08:11:02.747Z,36.64
2018-12-26T08:12:02.731Z,36.64
2018-12-26T08:13:02.961Z,43.91
2018-12-26T08:14:03.618Z,41.34
2018-12-26T08:15:10.413Z,42.41
2018-12-26T08:16:03.451Z,39.31
2018-12-26T08:17:02.950Z,46.93
2018-12-26T08:18:02.871Z,35.41
2018-12-26T08:19:02.993Z,37.22
2018-12-26T08:20:03.184Z,38.54
2018-12-26T08:21:03.013Z,38.24
2018-12-26T08:22:03.641Z,39.72
2018-12-26T08:23:03.326Z,39.37
2018-12-26T08:24:03.198Z,41.81
2018-12-26T08:25:03.101Z,36.26
2018-12-26T08:26:03.054Z,35.06
2018-12-26T08:27:03.584Z,33.03
2018-12-26T08:28:02.722Z,37.99
2018-12-26T08:29:03.073Z,34.96
2018-12-26T08:30:02.928Z,34.88
2018-12-26T08:31:03.213Z,36.4
2018-12-26T08:32:03.350Z,39.81
2018-12-26T08:33:02.820Z,38.01
2018-12-26T08:34:03.615Z,33.41
2018-12-26T08:35:02.966Z,33.02
2018-12-26T08:36:02.888Z,33.51
2018-12-26T08:37:03.293Z,32.41
2018-12-26T08:38:03.689Z,33.24
2018-12-26T08:39:03.411Z,34.69
2018-12-26T08:40:02.878Z,36.47
2018-12-26T08:41:03.466Z,39.95
2018-12-26T08:42:02.894Z,34.45
2018-12-26T08:43:03.114Z,40.6
2018-12-26T08:44:02.971Z,35.06
2018-12-26T08:45:03.685Z,36.89
2018-12-26T08:46:02.987Z,33.85
2018-12-26T08:47:03.641Z,34.36
2018-12-26T08:48:03.087Z,39.61
2018-12-26T08:49:03.072Z,38.01
2018-12-26T08:50:02.818Z,34.08
2018-12-26T08:51:03.577Z,35.81
2018-12-26T08:52:03.331Z,36.98
2018-12-26T08:53:03.006Z,36.28
2018-12-26T08:54:03.566Z,34.24
2018-12-26T08:55:03.675Z,34.88
2018-12-26T08:56:04.121Z,35.82
2018-12-26T08:57:03.484Z,38.07
2018-12-26T08:58:03.101Z,37.31
2018-12-26T08:59:02.980Z,34.85
2018-12-26T09:00:03.640Z,32.04
2018-12-26T09:01:02.990Z,37.09
2018-12-26T09:02:02.790Z,37.09
2018-12-26T09:03:03.395Z,32.61
2018-12-26T09:04:03.448Z,32.85
2018-12-26T09:05:03.653Z,30.22
2018-12-26T09:06:03.222Z,35.15
2018-12-26T09:07:03.243Z,32.75
2018-12-26T09:08:02.652Z,31.61
2018-12-26T09:09:03.674Z,34.96
2018-12-26T09:10:03.515Z,31.59
2018-12-26T09:11:02.841Z,35.88
2018-12-26T09:12:03.857Z,32.35
2018-12-26T09:13:02.713Z,34.91
2018-12-26T09:14:03.685Z,33.05
2018-12-26T09:15:03.372Z,32.28
2018-12-26T09:16:03.559Z,34.72
2018-12-26T09:17:02.896Z,34.15
2018-12-26T09:18:03.546Z,33.69
2018-12-26T09:19:03.358Z,32.89
2018-12-26T09:20:03.618Z,35.34
2018-12-26T09:21:03.412Z,31.05
2018-12-26T09:22:02.906Z,34.11
2018-12-26T09:23:03.393Z,32.98
2018-12-26T09:24:03.969Z,33.09
2018-12-26T09:25:03.144Z,30.74
2018-12-26T09:26:03.608Z,33.58
2018-12-26T09:27:03.248Z,40.73
2018-12-26T09:28:02.756Z,39.67
2018-12-26T09:29:03.589Z,37.51
2018-12-26T09:30:02.812Z,31.4
2018-12-26T09:31:03.294Z,33.34
2018-12-26T09:32:03.591Z,32.13
2018-12-26T09:33:02.583Z,35.61
2018-12-26T09:34:03.174Z,36.61
2018-12-26T09:35:03.296Z,35.31
2018-12-26T09:36:02.949Z,28.92
2018-12-26T09:37:02.915Z,35.66
2018-12-26T09:38:03.051Z,31.41
2018-12-26T09:39:03.133Z,34.24
2018-12-26T09:40:03.130Z,34.24
2018-12-26T09:41:02.850Z,32.8
2018-12-26T09:42:02.876Z,34.35
2018-12-26T09:43:03.438Z,37.56
2018-12-26T09:44:03.177Z,35.31
2018-12-26T09:45:03.502Z,33.92
2018-12-26T09:46:03.122Z,34
2018-12-26T09:47:03.226Z,35.98
2018-12-26T09:48:02.949Z,34.45
2018-12-26T09:49:03.570Z,34.45
2018-12-26T09:50:03.152Z,34.5
2018-12-26T09:51:03.161Z,34.36
2018-12-26T09:52:02.952Z,34.36
2018-12-26T09:53:03.870Z,34.46
2018-12-26T09:54:03.611Z,30.11
2018-12-26T09:55:03.534Z,35.03
2018-12-26T09:56:03.458Z,33.41
2018-12-26T09:57:03.569Z,34.16
2018-12-26T09:58:03.292Z,37.46
2018-12-26T09:59:03.163Z,29.42
2018-12-26T10:00:03.514Z,33.74
2018-12-26T10:01:02.816Z,30.87
2018-12-26T10:02:03.526Z,33.41
2018-12-26T10:03:03.764Z,35.71
2018-12-26T10:04:03.524Z,35.77
2018-12-26T10:05:05.702Z,35.77
2018-12-26T10:06:03.645Z,33.74
2018-12-26T10:07:03.009Z,33.37
2018-12-26T10:08:03.331Z,32.1
2018-12-26T10:09:03.217Z,33.11
2018-12-26T10:10:03.095Z,33.84
2018-12-26T10:11:02.835Z,35.49
2018-12-26T10:12:03.558Z,32.91
2018-12-26T10:13:03.834Z,31.13
2018-12-26T10:14:03.450Z,33.48
2018-12-26T10:15:03.468Z,28.06
2018-12-26T10:16:03.123Z,29.9
2018-12-26T10:17:03.550Z,31.45
2018-12-26T10:18:03.120Z,30.71
2018-12-26T10:19:02.903Z,32.74
2018-12-26T10:20:02.792Z,35.62
2018-12-26T10:21:03.519Z,32.84
2018-12-26T10:22:03.605Z,29.86
2018-12-26T10:23:03.369Z,36.09
2018-12-26T10:24:03.786Z,32.23
2018-12-26T10:25:02.939Z,31.74
2018-12-26T10:26:02.899Z,30.22
2018-12-26T10:27:02.745Z,30.7
2018-12-26T10:28:03.468Z,31.15
2018-12-26T10:29:02.949Z,28.18
2018-12-26T10:30:03.444Z,33.1
2018-12-26T10:31:02.803Z,30.92
2018-12-26T10:32:02.744Z,30.42
2018-12-26T10:33:03.092Z,28.39
2018-12-26T10:34:03.838Z,31.68
2018-12-26T10:35:02.989Z,35.51
2018-12-26T10:36:02.879Z,35.51
2018-12-26T10:37:02.766Z,28.58
2018-12-26T10:38:02.743Z,28.58
2018-12-26T10:39:02.939Z,33.68
2018-12-26T10:40:03.049Z,32.94
2018-12-26T10:41:03.167Z,32.94
2018-12-26T10:42:02.744Z,29.12
2018-12-26T10:43:03.936Z,28.6
2018-12-26T10:44:03.180Z,31.2
2018-12-26T10:45:03.271Z,30.99
2018-12-26T10:46:03.209Z,30.91
2018-12-26T10:47:02.689Z,26.09
2018-12-26T10:48:03.093Z,28.13
2018-12-26T10:49:03.228Z,33.36
2018-12-26T10:50:03.108Z,28.24
2018-12-26T10:51:02.811Z,29.2
2018-12-26T10:52:03.130Z,32.75
2018-12-26T10:53:03.154Z,26.82
2018-12-26T10:54:03.487Z,31.87
2018-12-26T10:55:03.127Z,30.18
2018-12-26T10:56:03.559Z,30.91
2018-12-26T10:57:02.764Z,28.15
2018-12-26T10:58:02.854Z,30.24
2018-12-26T10:59:09.882Z,31.09
2018-12-26T11:00:02.881Z,26.72
2018-12-26T11:01:03.121Z,30.07
2018-12-26T11:02:02.655Z,32.39
2018-12-26T11:03:03.371Z,28.19
2018-12-26T11:04:03.644Z,34.38
2018-12-26T11:05:02.916Z,29.38
2018-12-26T11:06:03.133Z,30.34
2018-12-26T11:07:03.623Z,31.23
2018-12-26T11:08:03.285Z,34.7
2018-12-26T11:09:03.284Z,29.44
2018-12-26T11:10:03.117Z,29.42
2018-12-26T11:11:03.662Z,28.39
2018-12-26T11:12:03.201Z,28.65
2018-12-26T11:13:03.212Z,29.05
2018-12-26T11:14:04.093Z,27.32
2018-12-26T11:15:03.882Z,29.09
2018-12-26T11:16:03.149Z,26.46
2018-12-26T11:17:03.645Z,27.08
2018-12-26T11:18:02.924Z,29.21
2018-12-26T11:19:04.061Z,30.73
2018-12-26T11:20:02.700Z,29.24
2018-12-26T11:21:02.886Z,28.74
2018-12-26T11:22:05.786Z,27.57
2018-12-26T11:23:03.613Z,29.23
2018-12-26T11:24:04.125Z,30.69
2018-12-26T11:25:03.141Z,32.92
2018-12-26T11:26:03.151Z,32.92
2018-12-26T11:27:03.548Z,30.59
2018-12-26T11:28:03.259Z,30.85
2018-12-26T11:29:03.599Z,30.69
2018-12-26T11:30:02.941Z,32.12
2018-12-26T11:31:03.230Z,32.12
2018-12-26T11:32:03.099Z,31.22
2018-12-26T11:33:02.702Z,35.01
2018-12-26T11:34:03.285Z,35.51
2018-12-26T11:35:04.785Z,34.17
2018-12-26T11:36:03.205Z,34.17
2018-12-26T11:37:03.095Z,35.51
2018-12-26T11:38:03.364Z,36.55
2018-12-26T11:39:02.939Z,32.85
2018-12-26T11:40:03.450Z,43.31
2018-12-26T11:41:05.184Z,46.16
2018-12-26T11:42:02.779Z,44.82
2018-12-26T11:43:04.244Z,41.94
2018-12-26T11:44:03.420Z,36.4
2018-12-26T11:45:03.432Z,32.09
2018-12-26T11:46:02.974Z,32.24
2018-12-26T11:47:03.344Z,30.83
2018-12-26T11:48:03.649Z,28.7
2018-12-26T11:49:03.638Z,32.46
2018-12-26T11:50:02.790Z,34.73
2018-12-26T11:51:04.069Z,30.89
2018-12-26T11:52:03.562Z,28.33
2018-12-26T11:53:03.644Z,31.44
2018-12-26T11:54:03.457Z,29.34
2018-12-26T11:55:03.650Z,29.96
2018-12-26T11:56:02.964Z,33.62
2018-12-26T11:57:03.684Z,33.12
2018-12-26T11:58:03.869Z,31.34
2018-12-26T11:59:03.706Z,28.83
2018-12-26T12:00:02.965Z,30.28
2018-12-26T12:01:03.422Z,31.36
2018-12-26T12:02:03.097Z,33.79
2018-12-26T12:03:02.759Z,35.41
2018-12-26T12:04:03.349Z,28.59
2018-12-26T12:05:02.984Z,29.85
2018-12-26T12:06:03.243Z,30.64
2018-12-26T12:07:03.009Z,35.55
2018-12-26T12:08:02.909Z,41.94
2018-12-26T12:09:03.036Z,38.64
2018-12-26T12:10:02.975Z,35.81
2018-12-26T12:11:03.510Z,38.47
2018-12-26T12:12:03.339Z,32.88
2018-12-26T12:13:03.376Z,35.17
2018-12-26T12:14:03.581Z,35.88
2018-12-26T12:15:03.919Z,35.88
2018-12-26T12:16:03.261Z,38.46
2018-12-26T12:17:03.625Z,35.92
2018-12-26T12:18:03.806Z,35.92
2018-12-26T12:19:02.855Z,33.07
2018-12-26T12:20:02.948Z,34.56
2018-12-26T12:21:04.540Z,36.82
2018-12-26T12:22:03.586Z,36.82
2018-12-26T12:23:03.579Z,35.49
2018-12-26T12:24:03.468Z,36.88
2018-12-26T12:25:03.691Z,35.91
2018-12-26T12:26:02.668Z,37.7
2018-12-26T12:27:03.303Z,37.84
2018-12-26T12:28:02.810Z,36.85
2018-12-26T12:29:04.185Z,36.64
2018-12-26T12:30:03.215Z,36.82
2018-12-26T12:31:03.092Z,35.67
2018-12-26T12:32:03.497Z,36.32
2018-12-26T12:33:02.888Z,37.34
2018-12-26T12:34:03.722Z,44.18
2018-12-26T12:35:03.612Z,36.44
2018-12-26T12:36:03.347Z,37.71
2018-12-26T12:37:03.290Z,37.71
2018-12-26T12:38:03.628Z,0
2018-12-26T12:39:03.423Z,34.94
2018-12-26T12:40:03.636Z,41.42
2018-12-26T12:41:03.389Z,36.99
2018-12-26T12:42:03.422Z,41.02
2018-12-26T12:43:02.769Z,37.48
2018-12-26T12:44:03.393Z,39.47
2018-12-26T12:45:03.040Z,40.18
2018-12-26T12:46:03.489Z,36.99
2018-12-26T12:47:03.415Z,33.94
2018-12-26T12:48:03.615Z,37.8
2018-12-26T12:49:03.136Z,37.8
2018-12-26T12:50:03.608Z,40.75
2018-12-26T12:51:03.243Z,37.83
2018-12-26T12:52:03.459Z,36.89
2018-12-26T12:53:03.112Z,33.19
2018-12-26T12:54:03.284Z,32.57